createdAt,value
2022-12-16T05:30:38.076Z,0.00
2022-12-16T05:31:38.125Z,0.00
2022-12-16T05:32:38.058Z,0.00
2022-12-16T05:33:38.024Z,0.00
2022-12-16T05:34:38.024Z,0.00
2022-12-16T05:35:38.037Z,0.00
2022-12-16T05:36:37.985Z,0.00
2022-12-16T05:37:37.972Z,0.00
2022-12-16T05:38:37.979Z,0.00
2022-12-16T05:39:37.963Z,0.00
2022-12-16T05:40:37.946Z,0.00
2022-12-16T05:41:37.953Z,0.00
2022-12-16T05:42:37.925Z,0.00
2022-12-16T05:43:37.916Z,0.00
2022-12-16T05:44:37.923Z,0.00
2022-12-16T05:45:37.982Z,0.00
2022-12-16T05:46:38.093Z,0.00
2022-12-16T05:47:37.880Z,0.00
2022-12-16T05:48:39.300Z,0.00
2022-12-16T05:49:37.850Z,0.00
2022-12-16T05:50:37.866Z,0.00
2022-12-16T05:51:37.861Z,0.00
2022-12-16T05:52:37.822Z,0.00
2022-12-16T05:53:37.813Z,0.00
2022-12-16T05:54:37.826Z,0.00
2022-12-16T05:55:37.786Z,0.00
2022-12-16T05:56:37.793Z,0.00
2022-12-16T05:57:37.772Z,0.00
2022-12-16T05:58:37.755Z,0.00
2022-12-16T05:59:37.753Z,0.00
2022-12-16T06:00:37.788Z,0.00
2022-12-16T06:01:37.835Z,0.00
2022-12-16T06:02:37.857Z,0.00
2022-12-16T06:03:38.388Z,0.00
2022-12-16T06:04:37.699Z,0.00
2022-12-16T06:05:37.712Z,0.00
2022-12-16T06:06:37.730Z,0.00
2022-12-16T06:07:37.676Z,0.00
2022-12-16T06:08:37.668Z,0.00
2022-12-16T06:09:37.650Z,0.00
2022-12-16T06:10:37.636Z,0.00
2022-12-16T06:11:37.694Z,0.00
2022-12-16T06:12:37.688Z,0.00
2022-12-16T06:13:37.615Z,0.00
2022-12-16T06:14:37.626Z,0.00
2022-12-16T06:15:37.587Z,0.00
2022-12-16T06:16:37.625Z,0.00
2022-12-16T06:17:37.587Z,0.00
2022-12-16T06:18:37.569Z,0.00
2022-12-16T06:19:37.544Z,0.00
2022-12-16T06:20:37.537Z,0.00
2022-12-16T06:21:37.529Z,0.00
2022-12-16T06:22:37.530Z,0.00
2022-12-16T06:23:37.826Z,0.00
2022-12-16T06:24:37.530Z,0.00
2022-12-16T06:25:37.489Z,0.00
2022-12-16T06:26:37.482Z,0.00
2022-12-16T06:27:37.469Z,0.00
2022-12-16T06:28:38.637Z,0.00
2022-12-16T06:29:37.470Z,0.00
2022-12-16T06:30:37.427Z,0.00
2022-12-16T06:31:37.487Z,0.00
2022-12-16T06:32:37.423Z,0.00
2022-12-16T06:33:37.419Z,0.00
2022-12-16T06:34:37.434Z,0.00
2022-12-16T06:35:37.384Z,0.00
2022-12-16T06:36:37.366Z,0.00
2022-12-16T06:37:37.369Z,0.00
2022-12-16T06:38:37.390Z,0.00
2022-12-16T06:39:37.344Z,0.00
2022-12-16T06:40:37.347Z,0.00
2022-12-16T06:41:37.316Z,0.00
2022-12-16T06:42:37.326Z,0.00
2022-12-16T06:43:37.306Z,0.00
2022-12-16T06:44:37.301Z,0.00
2022-12-16T06:45:37.340Z,0.00
2022-12-16T06:46:37.265Z,0.00
2022-12-16T06:47:37.260Z,0.00
2022-12-16T06:48:37.253Z,0.00
2022-12-16T06:49:37.239Z,0.00
2022-12-16T06:50:40.479Z,0.00
2022-12-16T06:51:38.245Z,0.00
2022-12-16T06:52:37.203Z,0.00
2022-12-16T06:53:37.197Z,0.00
2022-12-16T06:54:37.187Z,0.00
2022-12-16T06:55:37.173Z,0.00
2022-12-16T06:56:37.177Z,0.00
2022-12-16T06:57:37.180Z,0.00
2022-12-16T06:58:37.138Z,0.00
2022-12-16T06:59:37.133Z,0.00
2022-12-16T07:00:37.175Z,0.00
2022-12-16T07:01:37.234Z,0.00
2022-12-16T07:02:37.255Z,0.00
2022-12-16T07:03:37.649Z,0.00
2022-12-16T07:04:37.079Z,0.00
2022-12-16T07:05:37.094Z,0.00
2022-12-16T07:06:37.091Z,0.00
2022-12-16T07:07:37.055Z,0.00
2022-12-16T07:08:37.063Z,0.00
2022-12-16T07:09:37.047Z,0.00
2022-12-16T07:10:37.015Z,0.00
2022-12-16T07:11:37.016Z,0.00
2022-12-16T07:12:36.999Z,0.00
2022-12-16T07:13:37.013Z,0.00
2022-12-16T07:14:37.002Z,0.00
2022-12-16T07:15:36.984Z,0.00
2022-12-16T07:16:37.021Z,0.00
2022-12-16T07:17:36.955Z,0.00
2022-12-16T07:18:36.952Z,0.00
2022-12-16T07:19:36.948Z,0.00
2022-12-16T07:20:36.942Z,0.00
2022-12-16T07:21:36.912Z,0.00
2022-12-16T07:22:37.045Z,0.00
2022-12-16T07:23:36.891Z,0.00
2022-12-16T07:24:36.886Z,0.00
2022-12-16T07:25:36.869Z,0.00
2022-12-16T07:26:36.863Z,0.00
2022-12-16T07:27:36.845Z,0.00
2022-12-16T07:28:36.853Z,0.00
2022-12-16T07:29:36.828Z,0.00
2022-12-16T07:30:36.835Z,0.00
2022-12-16T07:31:36.890Z,0.00
2022-12-16T07:32:36.795Z,0.00
2022-12-16T07:33:36.966Z,0.00
2022-12-16T07:34:41.308Z,0.00
2022-12-16T07:35:37.763Z,0.00
2022-12-16T07:36:36.758Z,0.00
2022-12-16T07:37:36.744Z,0.00
2022-12-16T07:38:36.767Z,0.00
2022-12-16T07:39:36.750Z,0.00
2022-12-16T07:40:36.726Z,0.00
2022-12-16T07:41:36.695Z,0.00
2022-12-16T07:42:36.687Z,0.00
2022-12-16T07:43:36.845Z,0.00
2022-12-16T07:44:36.678Z,0.00
2022-12-16T07:45:41.674Z,5.62
2022-12-16T07:46:37.690Z,5.62
2022-12-16T07:47:36.656Z,5.62
2022-12-16T07:48:36.651Z,5.62
2022-12-16T07:49:36.629Z,5.62
2022-12-16T07:50:36.648Z,5.62
2022-12-16T07:51:36.605Z,5.62
2022-12-16T07:52:36.600Z,5.62
2022-12-16T07:53:36.916Z,5.62
2022-12-16T07:54:36.597Z,5.62
2022-12-16T07:55:36.611Z,5.62
2022-12-16T07:56:36.566Z,5.62
2022-12-16T07:57:36.541Z,5.62
2022-12-16T07:58:36.527Z,5.62
2022-12-16T07:59:36.521Z,5.62
2022-12-16T08:00:36.537Z,5.62
2022-12-16T08:01:36.592Z,5.62
2022-12-16T08:02:36.644Z,5.62
2022-12-16T08:03:37.311Z,5.62
2022-12-16T08:04:36.467Z,5.62
2022-12-16T08:05:36.456Z,5.62
2022-12-16T08:06:40.294Z,11.25
2022-12-16T08:07:36.452Z,11.25
2022-12-16T08:08:36.427Z,11.25
2022-12-16T08:09:36.436Z,11.25
2022-12-16T08:10:36.434Z,11.25
2022-12-16T08:11:36.397Z,11.25
2022-12-16T08:12:36.380Z,11.25
2022-12-16T08:13:36.810Z,11.25
2022-12-16T08:14:36.372Z,11.25
2022-12-16T08:15:36.356Z,11.25
2022-12-16T08:16:36.403Z,11.25
2022-12-16T08:17:36.332Z,11.25
2022-12-16T08:18:36.321Z,11.25
2022-12-16T08:19:36.321Z,11.25
2022-12-16T08:20:36.317Z,11.25
2022-12-16T08:21:36.295Z,11.25
2022-12-16T08:22:36.280Z,11.25
2022-12-16T08:23:36.600Z,11.25
2022-12-16T08:24:36.258Z,11.25
2022-12-16T08:25:36.253Z,16.88
2022-12-16T08:26:36.285Z,16.88
2022-12-16T08:27:36.236Z,16.88
2022-12-16T08:28:36.214Z,16.88
2022-12-16T08:29:45.052Z,16.88
2022-12-16T08:30:37.214Z,16.88
2022-12-16T08:31:36.188Z,16.88
2022-12-16T08:32:36.198Z,16.88
2022-12-16T08:33:36.654Z,16.88
2022-12-16T08:34:36.156Z,16.88
2022-12-16T08:35:36.145Z,16.88
2022-12-16T08:36:36.150Z,16.88
2022-12-16T08:37:36.128Z,16.88
2022-12-16T08:38:36.119Z,16.88
2022-12-16T08:39:36.107Z,16.88
2022-12-16T08:40:36.923Z,16.88
2022-12-16T08:41:36.088Z,16.88
2022-12-16T08:42:36.111Z,16.88
2022-12-16T08:43:36.557Z,16.88
2022-12-16T08:44:36.067Z,16.88
2022-12-16T08:45:36.040Z,16.88
2022-12-16T08:46:36.161Z,22.50
2022-12-16T08:47:36.045Z,22.50
2022-12-16T08:48:36.011Z,28.12
2022-12-16T08:49:36.000Z,33.75
2022-12-16T08:50:36.010Z,45.00
2022-12-16T08:51:35.983Z,45.00
2022-12-16T08:52:35.976Z,50.62
2022-12-16T08:53:36.391Z,56.25
2022-12-16T08:54:35.951Z,50.62
2022-12-16T08:55:35.933Z,50.62
2022-12-16T08:56:35.986Z,56.25
2022-12-16T08:57:35.916Z,61.88
2022-12-16T08:58:35.953Z,61.88
2022-12-16T08:59:35.894Z,61.88
2022-12-16T09:00:35.889Z,61.88
2022-12-16T09:01:35.981Z,61.88
2022-12-16T09:02:36.067Z,73.12
2022-12-16T09:03:36.392Z,67.50
2022-12-16T09:04:35.846Z,67.50
2022-12-16T09:05:35.854Z,67.50
2022-12-16T09:06:40.363Z,67.50
2022-12-16T09:07:36.809Z,67.50
2022-12-16T09:08:35.804Z,67.50
2022-12-16T09:09:35.790Z,67.50
2022-12-16T09:10:40.252Z,67.50
2022-12-16T09:11:35.766Z,67.50
2022-12-16T09:12:35.788Z,67.50
2022-12-16T09:13:36.254Z,67.50
2022-12-16T09:14:35.763Z,67.50
2022-12-16T09:15:35.780Z,67.50
2022-12-16T09:16:35.819Z,61.88
2022-12-16T09:17:35.714Z,67.50
2022-12-16T09:18:35.699Z,73.12
2022-12-16T09:19:35.686Z,73.12
2022-12-16T09:20:35.702Z,73.12
2022-12-16T09:21:35.665Z,61.88
2022-12-16T09:22:35.675Z,61.88
2022-12-16T09:23:35.929Z,61.88
2022-12-16T09:24:35.637Z,56.25
2022-12-16T09:25:35.640Z,56.25
2022-12-16T09:26:35.739Z,73.12
2022-12-16T09:27:35.604Z,73.12
2022-12-16T09:28:35.615Z,61.88
2022-12-16T09:29:37.386Z,73.12
2022-12-16T09:30:36.702Z,73.12
2022-12-16T09:31:35.674Z,73.12
2022-12-16T09:32:35.566Z,73.12
2022-12-16T09:33:36.292Z,78.75
2022-12-16T09:34:35.587Z,78.75
2022-12-16T09:35:35.532Z,78.75
2022-12-16T09:36:35.505Z,73.12
2022-12-16T09:37:35.510Z,61.88
2022-12-16T09:38:35.531Z,61.88
2022-12-16T09:39:35.495Z,67.50
2022-12-16T09:40:35.480Z,73.12
2022-12-16T09:41:39.651Z,73.12
2022-12-16T09:42:36.475Z,73.12
2022-12-16T09:43:35.923Z,78.75
2022-12-16T09:44:35.439Z,78.75
2022-12-16T09:45:35.418Z,78.75
2022-12-16T09:46:35.617Z,78.75
2022-12-16T09:47:35.445Z,84.38
2022-12-16T09:48:35.385Z,78.75
2022-12-16T09:49:35.393Z,78.75
2022-12-16T09:50:35.398Z,84.38
2022-12-16T09:51:35.349Z,84.38
2022-12-16T09:52:35.366Z,84.38
2022-12-16T09:53:35.811Z,78.75
2022-12-16T09:54:35.327Z,78.75
2022-12-16T09:55:35.311Z,84.38
2022-12-16T09:56:35.328Z,84.38
2022-12-16T09:57:35.305Z,90.00
2022-12-16T09:58:35.278Z,84.38
2022-12-16T09:59:35.272Z,84.38
2022-12-16T10:00:35.260Z,90.00
2022-12-16T10:01:35.475Z,90.00
2022-12-16T10:02:35.457Z,90.00
2022-12-16T10:03:35.659Z,84.38
2022-12-16T10:04:35.222Z,90.00
2022-12-16T10:05:35.210Z,90.00
2022-12-16T10:06:35.213Z,90.00
2022-12-16T10:07:35.190Z,90.00
2022-12-16T10:08:35.193Z,90.00
2022-12-16T10:09:35.184Z,90.00
2022-12-16T10:10:35.149Z,90.00
2022-12-16T10:11:35.145Z,90.00
2022-12-16T10:12:35.132Z,90.00
2022-12-16T10:13:35.440Z,90.00
2022-12-16T10:14:35.145Z,95.62
2022-12-16T10:15:35.152Z,95.62
2022-12-16T10:16:35.208Z,95.62
2022-12-16T10:17:35.099Z,90.00
2022-12-16T10:18:35.163Z,90.00
2022-12-16T10:19:35.056Z,90.00
2022-12-16T10:20:35.072Z,90.00
2022-12-16T10:21:35.036Z,90.00
2022-12-16T10:22:35.046Z,95.62
2022-12-16T10:23:35.414Z,95.62
2022-12-16T10:24:35.030Z,95.62
2022-12-16T10:25:34.996Z,95.62
2022-12-16T10:26:35.014Z,95.62
2022-12-16T10:27:34.975Z,95.62
2022-12-16T10:28:34.965Z,95.62
2022-12-16T10:29:34.949Z,95.62
2022-12-16T10:30:34.957Z,95.62
2022-12-16T10:31:35.018Z,90.00
2022-12-16T10:32:34.937Z,95.62
2022-12-16T10:33:35.554Z,90.00
2022-12-16T10:34:34.996Z,90.00
2022-12-16T10:35:34.908Z,84.38
2022-12-16T10:36:34.880Z,90.00
2022-12-16T10:37:34.869Z,90.00
2022-12-16T10:38:34.874Z,84.38
2022-12-16T10:39:34.869Z,84.38
2022-12-16T10:40:34.858Z,90.00
2022-12-16T10:41:34.883Z,90.00
2022-12-16T10:42:34.820Z,90.00
2022-12-16T10:43:35.142Z,90.00
2022-12-16T10:44:34.797Z,90.00
2022-12-16T10:45:34.795Z,90.00
2022-12-16T10:46:34.852Z,90.00
2022-12-16T10:47:34.787Z,90.00
2022-12-16T10:48:35.259Z,90.00
2022-12-16T10:49:34.966Z,90.00
2022-12-16T10:50:34.756Z,90.00
2022-12-16T10:51:34.740Z,90.00
2022-12-16T10:52:34.716Z,90.00
2022-12-16T10:53:35.333Z,90.00
2022-12-16T10:54:34.698Z,90.00
2022-12-16T10:55:34.692Z,90.00
2022-12-16T10:56:34.669Z,90.00
2022-12-16T10:57:34.682Z,90.00
2022-12-16T10:58:35.855Z,95.62
2022-12-16T10:59:34.637Z,95.62
2022-12-16T11:00:34.653Z,95.62
2022-12-16T11:01:34.769Z,95.62
2022-12-16T11:02:34.818Z,95.62
2022-12-16T11:03:35.155Z,101.25
2022-12-16T11:04:34.607Z,95.62
2022-12-16T11:05:34.591Z,95.62
2022-12-16T11:06:34.588Z,90.00
2022-12-16T11:07:34.559Z,90.00
2022-12-16T11:08:34.541Z,90.00
2022-12-16T11:09:34.547Z,90.00
2022-12-16T11:10:34.533Z,90.00
2022-12-16T11:11:34.536Z,84.38
2022-12-16T11:12:34.498Z,84.38
2022-12-16T11:13:34.777Z,84.38
2022-12-16T11:14:34.492Z,84.38
2022-12-16T11:15:38.403Z,78.75
2022-12-16T11:16:35.542Z,78.75
2022-12-16T11:17:34.448Z,73.12
2022-12-16T11:18:34.441Z,78.75
2022-12-16T11:19:34.452Z,73.12
2022-12-16T11:20:34.420Z,73.12
2022-12-16T11:21:34.401Z,73.12
2022-12-16T11:22:34.484Z,67.50
2022-12-16T11:23:35.044Z,67.50
2022-12-16T11:24:34.384Z,67.50
2022-12-16T11:25:34.360Z,61.88
2022-12-16T11:26:37.175Z,61.88
2022-12-16T11:27:34.336Z,56.25
2022-12-16T11:28:34.363Z,56.25
2022-12-16T11:29:34.324Z,56.25
2022-12-16T11:30:34.322Z,50.62
2022-12-16T11:31:34.377Z,50.62
2022-12-16T11:32:34.285Z,50.62
2022-12-16T11:33:34.710Z,45.00
2022-12-16T11:34:34.299Z,45.00
2022-12-16T11:35:34.261Z,45.00
2022-12-16T11:36:34.251Z,45.00
2022-12-16T11:37:34.236Z,45.00
2022-12-16T11:38:34.267Z,45.00
2022-12-16T11:39:34.216Z,45.00
2022-12-16T11:40:34.215Z,45.00
2022-12-16T11:41:34.209Z,45.00
2022-12-16T11:42:34.198Z,39.38
2022-12-16T11:43:34.672Z,39.38
2022-12-16T11:44:34.190Z,39.38
2022-12-16T11:45:34.149Z,39.38
2022-12-16T11:46:34.174Z,39.38
2022-12-16T11:47:34.125Z,39.38
2022-12-16T11:48:34.127Z,39.38
2022-12-16T11:49:34.127Z,33.75
2022-12-16T11:50:34.101Z,33.75
2022-12-16T11:51:34.091Z,33.75
2022-12-16T11:52:37.770Z,33.75
2022-12-16T11:53:34.443Z,33.75
2022-12-16T11:54:34.076Z,33.75
2022-12-16T11:56:03.408Z,33.75
2022-12-16T11:56:35.103Z,33.75
2022-12-16T11:57:34.038Z,33.75
2022-12-16T11:58:34.027Z,33.75
2022-12-16T11:59:34.016Z,33.75
2022-12-16T12:00:34.003Z,33.75
2022-12-16T12:01:34.033Z,33.75
2022-12-16T12:02:34.017Z,28.12
2022-12-16T12:03:34.393Z,28.12
2022-12-16T12:04:33.990Z,28.12
2022-12-16T12:05:33.954Z,28.12
2022-12-16T12:06:33.926Z,28.12
2022-12-16T12:07:33.918Z,28.12
2022-12-16T12:08:33.908Z,28.12
2022-12-16T12:09:33.894Z,28.12
2022-12-16T12:10:33.927Z,28.12
2022-12-16T12:11:33.885Z,28.12
2022-12-16T12:12:33.861Z,28.12
2022-12-16T12:13:34.227Z,28.12
2022-12-16T12:14:33.844Z,28.12
2022-12-16T12:15:33.847Z,28.12
2022-12-16T12:16:33.897Z,22.50
2022-12-16T12:17:33.825Z,22.50
2022-12-16T12:18:34.327Z,22.50
2022-12-16T12:19:33.781Z,22.50
2022-12-16T12:20:33.781Z,22.50
2022-12-16T12:21:33.787Z,22.50
2022-12-16T12:22:33.800Z,22.50
2022-12-16T12:23:34.120Z,22.50
2022-12-16T12:24:33.740Z,22.50
2022-12-16T12:25:33.723Z,22.50
2022-12-16T12:26:33.814Z,22.50
2022-12-16T12:27:33.706Z,22.50
2022-12-16T12:28:33.735Z,22.50
2022-12-16T12:29:33.678Z,22.50
2022-12-16T12:30:33.678Z,22.50
2022-12-16T12:31:33.728Z,22.50
2022-12-16T12:32:33.656Z,22.50
2022-12-16T12:33:33.996Z,22.50
2022-12-16T12:34:33.660Z,22.50
2022-12-16T12:35:33.620Z,22.50
2022-12-16T12:36:37.875Z,22.50
2022-12-16T12:37:33.594Z,22.50
2022-12-16T12:38:33.604Z,22.50
2022-12-16T12:39:33.580Z,22.50
2022-12-16T12:40:33.565Z,22.50
2022-12-16T12:41:33.562Z,22.50
2022-12-16T12:42:33.562Z,22.50
2022-12-16T12:43:35.672Z,22.50
2022-12-16T12:44:42.421Z,22.50
2022-12-16T12:45:34.523Z,22.50
2022-12-16T12:46:33.590Z,22.50
2022-12-16T12:47:33.486Z,22.50
2022-12-16T12:48:33.480Z,16.88
2022-12-16T12:49:33.486Z,16.88
2022-12-16T12:50:33.466Z,16.88
2022-12-16T12:51:33.463Z,16.88
2022-12-16T12:52:33.443Z,16.88
2022-12-16T12:53:33.745Z,16.88
2022-12-16T12:54:33.718Z,16.88
2022-12-16T12:55:33.400Z,16.88
2022-12-16T12:56:33.395Z,16.88
2022-12-16T12:57:33.399Z,16.88
2022-12-16T12:58:33.407Z,16.88
2022-12-16T12:59:33.374Z,16.88
2022-12-16T13:00:33.440Z,16.88
2022-12-16T13:01:33.542Z,16.88
2022-12-16T13:02:33.533Z,16.88
2022-12-16T13:03:33.926Z,16.88
2022-12-16T13:04:33.307Z,16.88
2022-12-16T13:05:33.308Z,16.88
2022-12-16T13:06:33.285Z,16.88
2022-12-16T13:07:33.308Z,16.88
2022-12-16T13:08:33.262Z,16.88
2022-12-16T13:09:33.280Z,16.88
2022-12-16T13:10:33.285Z,16.88
2022-12-16T13:11:35.443Z,16.88
2022-12-16T13:12:33.227Z,16.88
2022-12-16T13:13:33.672Z,16.88
2022-12-16T13:14:33.231Z,16.88
2022-12-16T13:15:33.236Z,16.88
2022-12-16T13:16:33.226Z,16.88
2022-12-16T13:17:33.175Z,16.88
2022-12-16T13:18:33.189Z,16.88
2022-12-16T13:19:33.149Z,16.88
2022-12-16T13:20:33.136Z,16.88
2022-12-16T13:21:33.139Z,16.88
2022-12-16T13:22:33.126Z,16.88
2022-12-16T13:23:33.429Z,16.88
2022-12-16T13:24:33.112Z,16.88
2022-12-16T13:25:33.084Z,16.88
2022-12-16T13:26:33.098Z,16.88
2022-12-16T13:27:33.074Z,16.88
2022-12-16T13:28:33.074Z,11.25
2022-12-16T13:29:33.044Z,11.25
2022-12-16T13:30:33.050Z,11.25
2022-12-16T13:31:33.087Z,11.25
2022-12-16T13:32:33.005Z,11.25
2022-12-16T13:33:33.341Z,11.25
2022-12-16T13:34:32.991Z,11.25
2022-12-16T13:35:33.014Z,11.25
2022-12-16T13:36:32.961Z,11.25
2022-12-16T13:37:34.051Z,11.25
2022-12-16T13:38:32.944Z,11.25
2022-12-16T13:39:32.937Z,11.25
2022-12-16T13:40:32.966Z,11.25
2022-12-16T13:41:32.919Z,11.25
2022-12-16T13:42:32.905Z,11.25
2022-12-16T13:43:33.022Z,11.25
2022-12-16T13:44:32.881Z,11.25
2022-12-16T13:45:32.949Z,11.25
2022-12-16T13:46:32.874Z,11.25
2022-12-16T13:47:32.848Z,11.25
2022-12-16T13:48:32.855Z,11.25
2022-12-16T13:49:32.829Z,11.25
2022-12-16T13:50:32.815Z,11.25
2022-12-16T13:51:32.826Z,11.25
2022-12-16T13:52:32.804Z,11.25
2022-12-16T13:53:33.168Z,11.25
2022-12-16T13:54:32.789Z,11.25
2022-12-16T13:55:32.794Z,11.25
2022-12-16T13:56:32.756Z,11.25
2022-12-16T13:57:32.767Z,11.25
2022-12-16T13:58:32.732Z,11.25
2022-12-16T13:59:32.788Z,11.25
2022-12-16T14:00:36.385Z,11.25
2022-12-16T14:01:32.855Z,11.25
2022-12-16T14:02:32.931Z,11.25
2022-12-16T14:03:33.122Z,11.25
2022-12-16T14:04:32.682Z,11.25
2022-12-16T14:05:32.664Z,11.25
2022-12-16T14:06:32.637Z,11.25
2022-12-16T14:07:32.664Z,11.25
2022-12-16T14:08:32.642Z,11.25
2022-12-16T14:09:32.614Z,11.25
2022-12-16T14:10:32.603Z,11.25
2022-12-16T14:11:32.658Z,11.25
2022-12-16T14:12:32.582Z,11.25
2022-12-16T14:13:32.967Z,11.25
2022-12-16T14:14:32.559Z,11.25
2022-12-16T14:15:32.547Z,11.25
2022-12-16T14:16:32.566Z,5.62
2022-12-16T14:17:32.543Z,5.62
2022-12-16T14:18:32.536Z,5.62
2022-12-16T14:19:32.532Z,5.62
2022-12-16T14:20:32.497Z,5.62
2022-12-16T14:21:32.488Z,5.62
2022-12-16T14:22:32.495Z,5.62
2022-12-16T14:23:55.938Z,5.62
2022-12-16T14:24:33.468Z,5.62
2022-12-16T14:25:32.453Z,5.62
2022-12-16T14:26:32.441Z,5.62
2022-12-16T14:27:32.426Z,5.62
2022-12-16T14:28:32.422Z,5.62
2022-12-16T14:29:32.414Z,5.62
2022-12-16T14:30:32.396Z,5.62
2022-12-16T14:31:32.441Z,5.62
2022-12-16T14:32:32.392Z,5.62
2022-12-16T14:33:32.926Z,5.62
2022-12-16T14:34:32.366Z,5.62
2022-12-16T14:35:32.346Z,5.62
2022-12-16T14:36:32.364Z,5.62
2022-12-16T14:37:32.328Z,5.62
2022-12-16T14:38:32.318Z,5.62
2022-12-16T14:39:32.314Z,5.62
2022-12-16T14:40:32.287Z,5.62
2022-12-16T14:41:32.273Z,5.62
2022-12-16T14:42:32.266Z,5.62
2022-12-16T14:43:32.633Z,5.62
2022-12-16T14:44:32.264Z,5.62
2022-12-16T14:45:32.270Z,5.62
2022-12-16T14:46:32.329Z,5.62
2022-12-16T14:47:32.254Z,5.62
2022-12-16T14:48:32.228Z,5.62
2022-12-16T14:49:32.196Z,5.62
2022-12-16T14:50:32.202Z,5.62
2022-12-16T14:51:32.177Z,5.62
2022-12-16T14:52:32.211Z,5.62
2022-12-16T14:53:32.580Z,5.62
2022-12-16T14:54:32.146Z,5.62
2022-12-16T14:55:32.142Z,5.62
2022-12-16T14:56:32.123Z,0.00
2022-12-16T14:57:32.102Z,0.00
2022-12-16T14:58:32.137Z,0.00
2022-12-16T14:59:32.109Z,0.00
2022-12-16T15:00:32.102Z,0.00
2022-12-16T15:01:32.372Z,0.00
2022-12-16T15:02:32.330Z,0.00
2022-12-16T15:03:32.579Z,0.00
2022-12-16T15:04:32.233Z,0.00
2022-12-16T15:05:32.054Z,0.00
2022-12-16T15:06:32.025Z,0.00
2022-12-16T15:07:32.012Z,0.00
2022-12-16T15:08:32.353Z,0.00
2022-12-16T15:09:31.976Z,0.00
2022-12-16T15:10:31.965Z,0.00
2022-12-16T15:11:31.989Z,0.00
2022-12-16T15:12:31.948Z,0.00
2022-12-16T15:13:32.433Z,0.00
2022-12-16T15:14:31.923Z,0.00
2022-12-16T15:15:31.948Z,0.00
2022-12-16T15:16:31.938Z,0.00
2022-12-16T15:17:31.906Z,0.00
2022-12-16T15:18:31.919Z,0.00
2022-12-16T15:19:31.880Z,0.00
2022-12-16T15:20:31.875Z,0.00
2022-12-16T15:21:31.876Z,0.00
2022-12-16T15:22:31.853Z,0.00
2022-12-16T15:23:32.225Z,0.00
2022-12-16T15:24:31.818Z,0.00
2022-12-16T15:25:31.839Z,0.00
2022-12-16T15:26:31.814Z,0.00
2022-12-16T15:27:31.821Z,0.00
2022-12-16T15:28:31.792Z,0.00
2022-12-16T15:29:31.775Z,0.00
2022-12-16T15:30:31.790Z,0.00
2022-12-16T15:31:31.846Z,0.00
2022-12-16T15:32:31.733Z,0.00
2022-12-16T15:33:32.244Z,0.00
2022-12-16T15:34:31.718Z,0.00
2022-12-16T15:35:31.719Z,0.00
2022-12-16T15:36:31.700Z,0.00
2022-12-16T15:37:31.719Z,0.00
2022-12-16T15:38:31.688Z,0.00
2022-12-16T15:39:31.702Z,0.00
2022-12-16T15:40:31.656Z,0.00
2022-12-16T15:41:31.646Z,0.00
2022-12-16T15:42:31.673Z,0.00
2022-12-16T15:43:32.003Z,0.00
2022-12-16T15:44:31.617Z,0.00
2022-12-16T15:45:31.614Z,0.00
2022-12-16T15:46:31.661Z,0.00
2022-12-16T15:47:31.589Z,0.00
2022-12-16T15:48:31.614Z,0.00
2022-12-16T15:49:31.588Z,0.00
2022-12-16T15:50:31.547Z,0.00
2022-12-16T15:51:31.542Z,0.00
2022-12-16T15:52:31.544Z,0.00
2022-12-16T15:53:32.010Z,0.00
2022-12-16T15:54:31.616Z,0.00
2022-12-16T15:55:31.514Z,0.00
2022-12-16T15:56:31.483Z,0.00
2022-12-16T15:57:31.474Z,0.00
2022-12-16T15:58:31.476Z,0.00
2022-12-16T15:59:31.465Z,0.00
2022-12-16T16:00:31.459Z,0.00
2022-12-16T16:01:31.520Z,0.00
2022-12-16T16:02:31.561Z,0.00
2022-12-16T16:03:31.844Z,0.00
2022-12-16T16:04:31.396Z,0.00
2022-12-16T16:05:31.401Z,0.00
2022-12-16T16:06:31.396Z,0.00
2022-12-16T16:07:31.382Z,0.00
2022-12-16T16:08:31.359Z,0.00
2022-12-16T16:09:31.352Z,0.00
2022-12-16T16:10:31.353Z,0.00
2022-12-16T16:11:31.351Z,0.00
2022-12-16T16:12:31.327Z,0.00
2022-12-16T16:13:31.762Z,0.00
2022-12-16T16:14:31.290Z,0.00
2022-12-16T16:15:31.419Z,0.00
2022-12-16T16:16:31.271Z,0.00
2022-12-16T16:17:31.303Z,0.00
2022-12-16T16:18:31.924Z,0.00
2022-12-16T16:19:31.262Z,0.00
2022-12-16T16:20:31.258Z,0.00
2022-12-16T16:21:31.225Z,0.00
2022-12-16T16:22:31.204Z,0.00
2022-12-16T16:23:31.706Z,0.00
2022-12-16T16:24:31.191Z,0.00
2022-12-16T16:25:31.177Z,0.00
2022-12-16T16:26:31.209Z,0.00
2022-12-16T16:27:31.155Z,0.00
2022-12-16T16:28:31.322Z,0.00
2022-12-16T16:29:31.139Z,0.00
2022-12-16T16:30:31.129Z,0.00
2022-12-16T16:31:31.160Z,0.00
2022-12-16T16:32:31.109Z,0.00
2022-12-16T16:33:31.446Z,0.00
2022-12-16T16:34:31.078Z,0.00
2022-12-16T16:35:31.094Z,0.00
2022-12-16T16:36:31.071Z,0.00
2022-12-16T16:37:31.053Z,0.00
2022-12-16T16:38:31.042Z,0.00
2022-12-16T16:39:31.049Z,0.00
2022-12-16T16:40:31.015Z,0.00
2022-12-16T16:41:31.028Z,0.00
2022-12-16T16:42:31.018Z,0.00
2022-12-16T16:43:31.363Z,0.00
2022-12-16T16:44:30.978Z,0.00
2022-12-16T16:45:31.013Z,0.00
2022-12-16T16:46:31.016Z,0.00
2022-12-16T16:47:30.961Z,0.00
2022-12-16T16:48:30.942Z,0.00
2022-12-16T16:49:30.976Z,0.00
2022-12-16T16:50:30.916Z,0.00
2022-12-16T16:51:30.902Z,0.00
2022-12-16T16:52:30.912Z,0.00
2022-12-16T16:53:31.048Z,0.00
2022-12-16T16:54:30.894Z,0.00
2022-12-16T16:55:30.932Z,0.00
2022-12-16T16:56:30.855Z,0.00
2022-12-16T16:57:30.845Z,0.00
2022-12-16T16:58:30.851Z,0.00
2022-12-16T16:59:30.830Z,0.00
2022-12-16T17:00:30.945Z,0.00
2022-12-16T17:01:30.939Z,0.00
2022-12-16T17:02:32.789Z,0.00
2022-12-16T17:03:31.179Z,0.00
2022-12-16T17:04:30.936Z,0.00
2022-12-16T17:05:30.774Z,0.00
2022-12-16T17:06:30.740Z,0.00
2022-12-16T17:07:30.729Z,0.00
2022-12-16T17:08:30.748Z,0.00
2022-12-16T17:09:30.715Z,0.00
2022-12-16T17:10:30.697Z,0.00
2022-12-16T17:11:30.717Z,0.00
2022-12-16T17:12:30.712Z,0.00
2022-12-16T17:13:31.147Z,0.00
2022-12-16T17:14:30.708Z,0.00
2022-12-16T17:15:30.654Z,0.00
2022-12-16T17:16:30.653Z,0.00
2022-12-16T17:17:30.638Z,0.00
2022-12-16T17:18:30.608Z,0.00
2022-12-16T17:19:30.612Z,0.00
2022-12-16T17:20:30.612Z,0.00
2022-12-16T17:21:30.584Z,0.00
2022-12-16T17:22:30.569Z,0.00
2022-12-16T17:23:31.085Z,0.00
2022-12-16T17:24:30.549Z,0.00
2022-12-16T17:25:30.578Z,0.00
2022-12-16T17:26:30.527Z,0.00
2022-12-16T17:27:30.524Z,0.00
2022-12-16T17:28:30.511Z,0.00
2022-12-16T17:29:30.508Z,0.00
2022-12-16T17:30:30.507Z,0.00
2022-12-16T17:31:30.677Z,0.00
2022-12-16T17:32:30.476Z,0.00
2022-12-16T17:33:30.595Z,0.00
2022-12-16T17:34:30.443Z,0.00
2022-12-16T17:35:30.450Z,0.00
2022-12-16T17:36:32.100Z,0.00
2022-12-16T17:37:30.413Z,0.00
2022-12-16T17:38:30.404Z,0.00
2022-12-16T17:39:30.415Z,0.00
2022-12-16T17:40:30.393Z,0.00
2022-12-16T17:41:30.381Z,0.00
2022-12-16T17:42:30.359Z,0.00
2022-12-16T17:43:30.647Z,0.00
2022-12-16T17:44:30.350Z,0.00
2022-12-16T17:45:30.333Z,0.00
2022-12-16T17:46:30.500Z,0.00
2022-12-16T17:47:30.327Z,0.00
2022-12-16T17:48:30.295Z,0.00
2022-12-16T17:49:30.316Z,0.00
2022-12-16T17:50:30.285Z,0.00
2022-12-16T17:51:30.266Z,0.00
2022-12-16T17:52:30.266Z,0.00
2022-12-16T17:53:30.514Z,0.00
2022-12-16T17:54:30.240Z,0.00
2022-12-16T17:55:30.245Z,0.00
2022-12-16T17:56:30.214Z,0.00
2022-12-16T17:57:30.201Z,0.00
2022-12-16T17:58:31.127Z,0.00
2022-12-16T17:59:30.193Z,0.00
2022-12-16T18:00:30.200Z,0.00
2022-12-16T18:01:30.277Z,0.00
2022-12-16T18:02:30.413Z,0.00
2022-12-16T18:03:30.333Z,0.00
2022-12-16T18:04:30.136Z,0.00
2022-12-16T18:05:37.646Z,0.00
2022-12-16T18:06:31.112Z,0.00
2022-12-16T18:07:30.097Z,0.00
2022-12-16T18:08:30.097Z,0.00
2022-12-16T18:09:30.091Z,0.00
2022-12-16T18:10:30.069Z,0.00
2022-12-16T18:11:32.573Z,0.00
2022-12-16T18:12:31.056Z,0.00
2022-12-16T18:13:30.213Z,0.00
2022-12-16T18:14:30.032Z,0.00
2022-12-16T18:15:30.015Z,0.00
2022-12-16T18:16:30.113Z,0.00
2022-12-16T18:17:30.019Z,0.00
2022-12-16T18:18:30.003Z,0.00
2022-12-16T18:19:29.970Z,0.00
2022-12-16T18:20:30.915Z,0.00
2022-12-16T18:21:29.971Z,0.00
2022-12-16T18:22:29.946Z,0.00
2022-12-16T18:23:30.060Z,0.00
2022-12-16T18:24:29.925Z,0.00
2022-12-16T18:25:29.927Z,0.00
2022-12-16T18:26:29.929Z,0.00
2022-12-16T18:27:29.880Z,0.00
2022-12-16T18:28:29.880Z,0.00
2022-12-16T18:29:29.867Z,0.00
2022-12-16T18:30:29.859Z,0.00
2022-12-16T18:31:29.948Z,0.00
2022-12-16T18:32:34.928Z,0.00
2022-12-16T18:33:31.139Z,0.00
2022-12-16T18:34:29.907Z,0.00
2022-12-16T18:35:29.802Z,0.00
2022-12-16T18:36:29.796Z,0.00